Time;durP1;ratioP1;P1;durP2;ratioP2;P2;SDS_P1;SDS_P2;PMS_P1;PMS_P2;Temp;Humidity;BMP_temperature;BMP_pressure;BME280_temperature;BME280_humidity;BME280_pressure;Samples;Min_cycle;Max_cycle;Signal;HPM_P1;HPM_P2
2023/10/03 00:00:41;;;;;;;;;;;16.90;99.90;;;;;;2618237;47;19947;-72
2023/10/03 00:03:13;;;;;;;;;;;16.80;99.90;;;;;;2618797;46;19965;-72
2023/10/03 00:05:45;;;;;;;;;;;16.80;99.90;;;;;;2619714;39;20343;-72
2023/10/03 00:08:18;;;;;;;;;;;16.80;99.90;;;;;;2618402;47;19949;-71
2023/10/03 00:10:49;;;;;;;;;;;16.80;99.90;;;;;;2620162;54;19958;-71
2023/10/03 00:13:19;;;;;;;;;;;16.80;99.90;;;;;;2623167;54;19947;-72
2023/10/03 00:15:49;;;;;;;;;;;16.80;99.90;;;;;;2621411;54;19938;-71
2023/10/03 00:18:19;;;;;;;;;;;16.80;99.90;;;;;;2618777;54;19969;-71
2023/10/03 00:20:49;;;;;;;;;;;16.80;99.90;;;;;;2618172;54;19947;-71
2023/10/03 00:23:21;;;;;;;;;;;16.70;99.90;;;;;;2618152;54;19946;-71
2023/10/03 00:25:54;;;;;;;;;;;16.70;99.90;;;;;;2618436;54;19954;-71
2023/10/03 00:28:23;;;;;;;;;;;16.70;99.90;;;;;;2618030;54;19946;-70
2023/10/03 00:30:53;;;;;;;;;;;16.80;99.90;;;;;;2619051;39;20353;-71
2023/10/03 00:33:25;;;;;;;;;;;16.70;99.90;;;;;;2619138;39;20421;-71
2023/10/03 00:35:55;;;;;;;;;;;16.70;99.90;;;;;;2618624;54;20453;-71
2023/10/03 00:38:27;;;;;;;;;;;16.70;99.90;;;;;;2617626;54;20514;-71
2023/10/03 00:40:58;;;;;;;;;;;16.60;99.90;;;;;;2618054;54;19939;-71
2023/10/03 00:43:27;;;;;;;;;;;16.60;99.90;;;;;;2618119;54;20453;-71
2023/10/03 00:45:57;;;;;;;;;;;16.60;99.90;;;;;;2618088;54;19947;-71
2023/10/03 00:48:27;;;;;;;;;;;16.60;99.90;;;;;;2619019;46;19951;-71
2023/10/03 00:50:57;;;;;;;;;;;16.60;99.90;;;;;;2618858;47;20033;-71
2023/10/03 00:53:32;;;;;;;;;;;16.60;99.90;;;;;;2618295;54;19947;-71
2023/10/03 00:56:02;;;;;;;;;;;16.60;99.90;;;;;;2618506;54;19987;-71
2023/10/03 00:58:32;;;;;;;;;;;16.60;99.90;;;;;;2616503;46;19993;-72
2023/10/03 01:01:03;;;;;;;;;;;16.60;99.90;;;;;;2615913;54;20034;-72
2023/10/03 01:03:36;;;;;;;;;;;16.50;99.90;;;;;;2616015;54;19954;-72
2023/10/03 01:06:09;;;;;;;;;;;16.50;99.90;;;;;;2617100;39;20392;-72
2023/10/03 01:08:42;;;;;;;;;;;16.40;99.90;;;;;;2616376;54;19938;-72
2023/10/03 01:11:15;;;;;;;;;;;16.40;99.90;;;;;;2617068;54;20472;-72
2023/10/03 01:13:47;;;;;;;;;;;16.40;99.90;;;;;;2617965;54;19990;-72
2023/10/03 01:16:25;;;;;;;;;;;16.30;99.90;;;;;;2618470;54;19973;-72
2023/10/03 01:18:58;;;;;;;;;;;16.30;99.90;;;;;;2618237;54;19954;-72
2023/10/03 01:21:29;;;;;;;;;;;16.30;99.90;;;;;;2618172;47;19955;-72
2023/10/03 01:24:04;;;;;;;;;;;16.30;99.90;;;;;;2617483;54;19957;-72
2023/10/03 01:26:34;;;;;;;;;;;16.30;99.90;;;;;;2618049;54;20034;-72
2023/10/03 01:29:04;;;;;;;;;;;16.30;99.90;;;;;;2618758;54;19947;-71
2023/10/03 01:31:33;;;;;;;;;;;16.30;99.90;;;;;;2618041;54;19946;-71
2023/10/03 01:34:05;;;;;;;;;;;16.30;99.90;;;;;;2617514;54;19946;-72
2023/10/03 01:36:35;;;;;;;;;;;16.20;99.90;;;;;;2618243;54;19973;-73
2023/10/03 01:39:08;;;;;;;;;;;16.20;99.90;;;;;;2618004;47;19957;-73
2023/10/03 01:41:38;;;;;;;;;;;16.20;99.90;;;;;;2618010;47;19972;-72
2023/10/03 01:44:08;;;;;;;;;;;16.20;99.90;;;;;;2618489;54;19946;-70
2023/10/03 01:46:38;;;;;;;;;;;16.20;99.90;;;;;;2618698;54;19946;-71
2023/10/03 01:49:08;;;;;;;;;;;16.20;99.90;;;;;;2618833;47;19946;-69
2023/10/03 01:51:38;;;;;;;;;;;16.20;99.90;;;;;;2618261;54;19954;-72
2023/10/03 01:54:11;;;;;;;;;;;16.20;99.90;;;;;;2618626;47;19987;-72
2023/10/03 01:56:40;;;;;;;;;;;16.20;99.90;;;;;;2619130;54;19946;-69
2023/10/03 01:59:11;;;;;;;;;;;16.20;99.90;;;;;;2618534;54;19938;-70
2023/10/03 02:01:40;;;;;;;;;;;16.20;99.90;;;;;;2618650;54;19946;-70
2023/10/03 02:04:10;;;;;;;;;;;16.20;99.90;;;;;;2618828;54;19951;-71
2023/10/03 02:06:40;;;;;;;;;;;16.10;99.90;;;;;;2619380;54;19953;-73
2023/10/03 02:09:13;;;;;;;;;;;16.10;99.90;;;;;;2619387;47;19951;-71
2023/10/03 02:11:42;;;;;;;;;;;16.10;99.90;;;;;;2618010;54;19946;-69
2023/10/03 02:14:12;;;;;;;;;;;16.10;99.90;;;;;;2618728;47;19987;-71
2023/10/03 02:16:46;;;;;;;;;;;16.10;99.90;;;;;;2618759;54;19954;-71
2023/10/03 02:19:17;;;;;;;;;;;16.10;99.90;;;;;;2618808;47;19942;-70
2023/10/03 02:21:47;;;;;;;;;;;16.10;99.90;;;;;;2618635;54;19958;-71
2023/10/03 02:24:19;;;;;;;;;;;16.10;99.90;;;;;;2618557;54;19953;-71
2023/10/03 02:26:49;;;;;;;;;;;16.10;99.90;;;;;;2619417;54;19947;-72
2023/10/03 02:29:19;;;;;;;;;;;16.10;99.90;;;;;;2618821;47;20451;-71
2023/10/03 02:31:49;;;;;;;;;;;16.10;99.90;;;;;;2617835;54;19947;-71
2023/10/03 02:34:19;;;;;;;;;;;16.10;99.90;;;;;;2618884;54;19947;-70
2023/10/03 02:36:50;;;;;;;;;;;16.10;99.90;;;;;;2618504;47;20009;-72
2023/10/03 02:39:25;;;;;;;;;;;16.10;99.90;;;;;;2618877;47;19939;-73
2023/10/03 02:41:54;;;;;;;;;;;16.20;99.90;;;;;;2619523;54;20485;-72
2023/10/03 02:44:25;;;;;;;;;;;16.10;99.90;;;;;;2624346;54;19990;-72
2023/10/03 02:46:58;;;;;;;;;;;16.20;99.90;;;;;;2622393;54;19957;-71
2023/10/03 02:49:27;;;;;;;;;;;16.10;99.90;;;;;;2619991;54;19947;-70
2023/10/03 02:51:59;;;;;;;;;;;16.10;99.90;;;;;;2618147;54;20457;-71
2023/10/03 02:54:32;;;;;;;;;;;16.10;99.90;;;;;;2618714;54;19953;-70
2023/10/03 02:57:02;;;;;;;;;;;16.60;99.90;;;;;;2618838;54;19947;-69
2023/10/03 02:59:31;;;;;;;;;;;16.10;99.90;;;;;;2618666;47;19953;-70
2023/10/03 03:02:01;;;;;;;;;;;16.00;99.90;;;;;;2618044;54;20077;-71
2023/10/03 03:04:33;;;;;;;;;;;16.10;99.90;;;;;;2618028;54;19954;-71
2023/10/03 03:07:04;;;;;;;;;;;16.10;99.90;;;;;;2618664;54;19955;-70
2023/10/03 03:09:40;;;;;;;;;;;16.00;99.90;;;;;;2618100;54;19953;-70
2023/10/03 03:12:10;;;;;;;;;;;16.10;99.90;;;;;;2617467;54;19973;-70
2023/10/03 03:14:40;;;;;;;;;;;16.10;99.90;;;;;;2617921;54;19958;-71
2023/10/03 03:17:14;;;;;;;;;;;16.10;99.90;;;;;;2618077;54;20090;-70
2023/10/03 03:19:44;;;;;;;;;;;16.10;99.90;;;;;;2618421;48;20002;-72
2023/10/03 03:22:15;;;;;;;;;;;16.10;99.90;;;;;;2617462;54;19947;-70
2023/10/03 03:24:51;;;;;;;;;;;16.10;99.90;;;;;;2618452;54;19962;-71
2023/10/03 03:27:26;;;;;;;;;;;16.20;99.90;;;;;;2619148;54;19951;-70
2023/10/03 03:30:33;;;;;;;;;;;16.10;99.90;;;;;;2618794;54;20426;-70
2023/10/03 03:33:06;;;;;;;;;;;16.10;99.90;;;;;;2618619;47;19954;-70
2023/10/03 03:35:42;;;;;;;;;;;16.10;99.90;;;;;;2618753;54;19979;-70
2023/10/03 03:38:15;;;;;;;;;;;16.10;99.90;;;;;;2617941;54;19957;-70
2023/10/03 05:20:35;;;;;;;;;;;16.10;99.90;;;;;;2617727;46;20092;-70
2023/10/03 05:23:05;;;;;;;;;;;16.60;99.90;;;;;;2616482;54;19971;-71
2023/10/03 05:25:37;;;;;;;;;;;16.00;99.90;;;;;;2617371;47;19945;-71
2023/10/03 05:28:10;;;;;;;;;;;16.10;99.90;;;;;;2617194;54;19954;-72
2023/10/03 05:30:40;;;;;;;;;;;16.10;99.90;;;;;;2616914;54;19958;-72
2023/10/03 05:33:10;;;;;;;;;;;16.10;99.90;;;;;;2616917;47;19947;-72
2023/10/03 05:35:43;;;;;;;;;;;16.10;99.90;;;;;;2618278;31;20430;-72
2023/10/03 05:38:12;;;;;;;;;;;16.10;99.90;;;;;;2619051;54;19939;-70
2023/10/03 05:40:43;;;;;;;;;;;16.10;99.90;;;;;;2623436;39;20345;-70
2023/10/03 05:43:12;;;;;;;;;;;16.20;99.90;;;;;;2622761;54;19954;-70
2023/10/03 05:45:42;;;;;;;;;;;16.10;99.90;;;;;;2618236;47;19946;-69
2023/10/03 05:48:12;;;;;;;;;;;16.10;99.90;;;;;;2617824;54;19953;-69
2023/10/03 05:50:44;;;;;;;;;;;16.10;99.90;;;;;;2617833;54;19964;-69
2023/10/03 05:53:14;;;;;;;;;;;16.10;99.90;;;;;;2618934;31;20424;-68
2023/10/03 05:55:45;;;;;;;;;;;16.10;99.90;;;;;;2617929;47;19938;-70
2023/10/03 05:58:15;;;;;;;;;;;16.10;99.90;;;;;;2618649;47;19946;-69
2023/10/03 06:00:44;;;;;;;;;;;16.10;99.90;;;;;;2617296;54;19973;-71
2023/10/03 06:03:14;;;;;;;;;;;16.10;99.90;;;;;;2617334;54;19954;-69
2023/10/03 06:05:46;;;;;;;;;;;16.10;99.90;;;;;;2617449;39;20266;-69
2023/10/03 06:08:17;;;;;;;;;;;16.10;99.90;;;;;;2620387;47;20051;-74
2023/10/03 06:10:47;;;;;;;;;;;16.20;99.90;;;;;;2620901;47;19950;-73
2023/10/03 06:13:17;;;;;;;;;;;16.20;99.90;;;;;;2622121;54;19953;-74
2023/10/03 06:15:46;;;;;;;;;;;16.20;99.90;;;;;;2622025;54;19958;-75
2023/10/03 06:18:16;;;;;;;;;;;16.20;99.90;;;;;;2621681;47;19945;-72
2023/10/03 06:20:49;;;;;;;;;;;16.30;99.90;;;;;;2622235;39;20412;-76
2023/10/03 06:23:20;;;;;;;;;;;16.30;99.90;;;;;;2623611;51;19954;-75
2023/10/03 06:25:51;;;;;;;;;;;16.30;99.90;;;;;;2622987;47;19998;-75
2023/10/03 06:28:21;;;;;;;;;;;16.50;99.90;;;;;;2623659;47;20051;-74
2023/10/03 06:30:52;;;;;;;;;;;16.40;99.90;;;;;;2621681;47;20006;-73
2023/10/03 06:33:20;;;;;;;;;;;16.40;99.90;;;;;;2618642;50;20033;-57
2023/10/03 06:35:53;;;;;;;;;;;16.40;99.90;;;;;;2617245;54;19954;-58
2023/10/03 06:38:23;;;;;;;;;;;16.40;99.90;;;;;;2617098;54;19947;-59
2023/10/03 06:40:53;;;;;;;;;;;16.50;99.90;;;;;;2617040;47;19968;-59
2023/10/03 06:43:23;;;;;;;;;;;16.50;99.90;;;;;;2616940;54;19976;-57
2023/10/03 06:45:52;;;;;;;;;;;16.50;99.90;;;;;;2617298;54;19938;-59
2023/10/03 06:48:24;;;;;;;;;;;16.60;99.90;;;;;;2617401;54;19953;-58
2023/10/03 06:50:56;;;;;;;;;;;16.60;99.90;;;;;;2616758;54;20652;-58
2023/10/03 06:53:26;;;;;;;;;;;16.70;99.90;;;;;;2616571;47;19965;-58
2023/10/03 06:55:57;;;;;;;;;;;16.70;99.90;;;;;;2616540;47;20042;-59
2023/10/03 06:58:26;;;;;;;;;;;16.80;99.90;;;;;;2606711;54;20017;-58
2023/10/03 07:00:57;;;;;;;;;;;16.80;99.90;;;;;;2610149;54;19946;-60
2023/10/03 07:03:27;;;;;;;;;;;16.90;99.90;;;;;;2610782;39;20355;-59
2023/10/03 07:05:59;;;;;;;;;;;16.90;99.90;;;;;;2611337;54;19946;-59
2023/10/03 07:08:29;;;;;;;;;;;17.00;99.90;;;;;;2611712;54;19954;-59
2023/10/03 07:10:59;;;;;;;;;;;17.00;99.90;;;;;;2611174;54;19977;-60
2023/10/03 07:13:29;;;;;;;;;;;17.10;99.90;;;;;;2611146;47;19946;-59
2023/10/03 07:15:59;;;;;;;;;;;17.10;99.90;;;;;;2611637;54;19946;-58
2023/10/03 07:18:28;;;;;;;;;;;17.20;99.90;;;;;;2611208;54;20768;-59
2023/10/03 07:21:01;;;;;;;;;;;17.20;99.90;;;;;;2610909;54;19947;-59
2023/10/03 07:23:30;;;;;;;;;;;17.30;99.90;;;;;;2611492;54;19953;-58
2023/10/03 07:26:00;;;;;;;;;;;17.30;99.90;;;;;;2611867;39;20505;-59
2023/10/03 07:28:30;;;;;;;;;;;17.30;99.90;;;;;;2611344;39;20194;-59
2023/10/03 07:30:59;;;;;;;;;;;17.40;99.90;;;;;;2611321;54;20033;-59
2023/10/03 07:33:31;;;;;;;;;;;17.50;99.90;;;;;;2613001;47;20007;-58
2023/10/03 07:36:08;;;;;;;;;;;17.60;99.90;;;;;;2612485;54;20471;-60
2023/10/03 07:38:38;;;;;;;;;;;17.60;99.90;;;;;;2611861;54;20689;-60
2023/10/03 07:41:09;;;;;;;;;;;17.60;99.90;;;;;;2611204;54;20473;-58
2023/10/03 07:43:38;;;;;;;;;;;17.60;99.90;;;;;;2613443;54;20505;-58
2023/10/03 07:46:09;;;;;;;;;;;17.60;99.90;;;;;;2613640;54;19951;-60
2023/10/03 07:48:42;;;;;;;;;;;17.70;99.90;;;;;;2613492;54;19954;-58
2023/10/03 07:51:20;;;;;;;;;;;17.80;99.90;;;;;;2612776;54;19953;-58
2023/10/03 07:53:51;;;;;;;;;;;17.90;99.90;;;;;;2617496;54;19954;-79
2023/10/03 07:56:25;;;;;;;;;;;17.90;99.90;;;;;;2620167;54;19938;-76
2023/10/03 07:58:56;;;;;;;;;;;18.00;99.90;;;;;;2619241;54;19987;-75
2023/10/03 08:01:27;;;;;;;;;;;18.00;99.90;;;;;;2622542;47;19998;-77
2023/10/03 08:04:00;;;;;;;;;;;18.00;99.90;;;;;;2622936;47;19987;-78
2023/10/03 08:06:33;;;;;;;;;;;18.10;99.90;;;;;;2622783;47;19950;-75
2023/10/03 08:09:03;;;;;;;;;;;18.10;99.90;;;;;;2619697;47;19946;-76
2023/10/03 08:11:33;;;;;;;;;;;18.10;99.90;;;;;;2621592;54;20010;-75
2023/10/03 08:14:11;;;;;;;;;;;18.10;99.90;;;;;;2622510;54;19946;-75
2023/10/03 08:16:41;;;;;;;;;;;18.10;99.90;;;;;;2621947;54;19946;-76
2023/10/03 08:19:12;;;;;;;;;;;18.20;99.90;;;;;;2620204;47;19946;-76
2023/10/03 08:21:44;;;;;;;;;;;18.20;99.90;;;;;;2619958;51;19946;-75
2023/10/03 08:24:18;;;;;;;;;;;18.20;99.90;;;;;;2619339;50;19947;-74
2023/10/03 08:26:51;;;;;;;;;;;18.30;99.90;;;;;;2618611;47;19947;-74
2023/10/03 08:29:23;;;;;;;;;;;18.30;99.90;;;;;;2617142;52;19947;-72
2023/10/03 08:31:57;;;;;;;;;;;18.30;99.90;;;;;;2617148;47;19946;-73
2023/10/03 08:34:27;;;;;;;;;;;18.40;99.90;;;;;;2616858;39;20005;-72
2023/10/03 08:37:02;;;;;;;;;;;18.40;99.90;;;;;;2616137;54;19946;-75
2023/10/03 08:39:33;;;;;;;;;;;18.50;99.90;;;;;;2616701;54;19939;-75
2023/10/03 08:42:12;;;;;;;;;;;18.50;99.90;;;;;;2616776;54;20488;-75
2023/10/03 08:44:49;;;;;;;;;;;18.50;99.90;;;;;;2617648;47;20075;-78
2023/10/03 08:47:22;;;;;;;;;;;18.60;99.90;;;;;;2616704;54;19946;-75
2023/10/03 08:49:56;;;;;;;;;;;18.60;99.90;;;;;;2616309;50;19954;-75
2023/10/03 08:52:39;;;;;;;;;;;18.60;99.90;;;;;;2615631;54;19956;-75
2023/10/03 08:55:10;;;;;;;;;;;18.70;99.90;;;;;;2616412;54;19946;-76
2023/10/03 08:57:40;;;;;;;;;;;18.70;99.90;;;;;;2616412;54;19958;-75
2023/10/03 09:00:10;;;;;;;;;;;18.80;99.90;;;;;;2615938;54;20016;-73
2023/10/03 09:02:45;;;;;;;;;;;18.80;99.90;;;;;;2616413;54;19947;-74
2023/10/03 09:05:19;;;;;;;;;;;18.90;99.90;;;;;;2617109;47;19946;-77
2023/10/03 09:07:55;;;;;;;;;;;19.00;99.90;;;;;;2616140;47;20029;-74
2023/10/03 09:10:25;;;;;;;;;;;19.00;99.90;;;;;;2616301;54;19938;-72
2023/10/03 09:13:03;;;;;;;;;;;19.10;99.90;;;;;;2616004;47;20068;-75
2023/10/03 09:15:37;;;;;;;;;;;19.20;99.90;;;;;;2616487;47;19938;-67
2023/10/03 09:18:10;;;;;;;;;;;19.30;99.90;;;;;;2616332;53;19950;-66
2023/10/03 09:20:42;;;;;;;;;;;19.30;99.90;;;;;;2615886;54;20037;-64
2023/10/03 09:23:17;;;;;;;;;;;19.40;99.90;;;;;;2595886;54;20046;-65
2023/10/03 09:25:55;;;;;;;;;;;19.50;99.90;;;;;;2605125;54;19947;-64
2023/10/03 09:28:35;;;;;;;;;;;19.60;99.90;;;;;;2605073;54;20011;-65
2023/10/03 09:31:08;;;;;;;;;;;19.60;99.90;;;;;;2604943;54;19971;-64
2023/10/03 09:33:40;;;;;;;;;;;19.70;99.90;;;;;;2605169;54;19954;-66
2023/10/03 09:36:10;;;;;;;;;;;19.80;99.90;;;;;;2605348;54;20248;-66
2023/10/03 09:38:46;;;;;;;;;;;19.90;99.90;;;;;;2605028;54;20821;-64
2023/10/03 09:41:21;;;;;;;;;;;20.00;99.90;;;;;;2604226;54;19950;-64
2023/10/03 09:43:53;;;;;;;;;;;20.00;99.90;;;;;;2604793;54;20062;-64
2023/10/03 09:46:38;;;;;;;;;;;20.10;99.90;;;;;;2606064;39;20353;-65
2023/10/03 09:49:12;;;;;;;;;;;20.20;99.90;;;;;;2604319;54;19946;-75
2023/10/03 09:51:51;;;;;;;;;;;20.40;99.90;;;;;;2605871;54;19954;-76
2023/10/03 09:54:30;;;;;;;;;;;20.40;99.90;;;;;;2604980;47;19981;-75
2023/10/03 09:57:01;;;;;;;;;;;20.50;99.90;;;;;;2605140;54;19951;-78
2023/10/03 09:59:32;;;;;;;;;;;20.60;99.90;;;;;;2605346;54;19954;-76
2023/10/03 10:02:03;;;;;;;;;;;20.70;99.90;;;;;;2606255;47;19975;-75
2023/10/03 10:04:34;;;;;;;;;;;20.70;99.90;;;;;;2609487;47;19954;-75
2023/10/03 10:07:16;;;;;;;;;;;20.80;99.90;;;;;;2610367;47;19946;-78
2023/10/03 10:09:56;;;;;;;;;;;20.90;99.90;;;;;;2607171;47;19958;-78
2023/10/03 10:12:25;;;;;;;;;;;21.00;99.90;;;;;;2606278;39;20400;-74
2023/10/03 10:15:21;;;;;;;;;;;21.10;99.90;;;;;;2606134;47;20748;-75
2023/10/03 10:17:52;;;;;;;;;;;21.20;99.90;;;;;;2607136;46;19969;-76
2023/10/03 10:20:27;;;;;;;;;;;21.30;99.90;;;;;;2606900;47;19951;-75
2023/10/03 10:23:13;;;;;;;;;;;21.50;99.90;;;;;;2606836;46;19970;-75
2023/10/03 10:25:50;;;;;;;;;;;21.70;99.90;;;;;;2606870;54;20621;-74
2023/10/03 10:28:26;;;;;;;;;;;21.90;99.90;;;;;;2605763;47;19954;-76
2023/10/03 10:31:10;;;;;;;;;;;22.20;99.90;;;;;;2606437;54;19947;-74
2023/10/03 10:33:40;;;;;;;;;;;22.40;99.90;;;;;;2607120;54;19946;-77
2023/10/03 10:36:12;;;;;;;;;;;22.50;99.90;;;;;;2606511;54;19946;-75
2023/10/03 10:38:55;;;;;;;;;;;22.60;99.90;;;;;;2604973;47;20484;-74
2023/10/03 10:41:31;;;;;;;;;;;22.70;99.90;;;;;;2606017;39;20333;-74
2023/10/03 10:44:08;;;;;;;;;;;22.90;99.90;;;;;;2606154;47;19954;-74
2023/10/03 10:46:38;;;;;;;;;;;23.10;99.90;;;;;;2606079;54;19942;-77
2023/10/03 10:49:28;;;;;;;;;;;23.10;99.90;;;;;;2604571;47;20004;-75
2023/10/03 10:52:01;;;;;;;;;;;23.20;99.90;;;;;;2604171;54;19946;-75
2023/10/03 10:54:33;;;;;;;;;;;23.20;99.90;;;;;;2605872;54;19957;-75
2023/10/03 10:57:06;;;;;;;;;;;23.20;99.90;;;;;;2605653;47;19947;-75
2023/10/03 10:59:39;;;;;;;;;;;23.20;99.90;;;;;;2609986;54;19943;-74
2023/10/03 11:02:17;;;;;;;;;;;23.20;99.90;;;;;;2605214;54;19947;-73
2023/10/03 11:04:54;;;;;;;;;;;23.20;99.90;;;;;;2607699;47;19950;-77
2023/10/03 11:07:24;;;;;;;;;;;23.30;99.90;;;;;;2606083;47;19954;-74
2023/10/03 11:09:54;;;;;;;;;;;23.30;99.90;;;;;;2605317;54;20472;-76
2023/10/03 11:12:28;;;;;;;;;;;23.40;99.90;;;;;;2604132;47;19985;-73
2023/10/03 11:14:58;;;;;;;;;;;23.40;99.90;;;;;;2606482;47;19957;-72
2023/10/03 11:17:28;;;;;;;;;;;23.40;99.90;;;;;;2606725;47;19954;-75
2023/10/03 11:19:58;;;;;;;;;;;23.30;99.90;;;;;;2606695;46;19969;-76
2023/10/03 11:22:28;;;;;;;;;;;23.20;99.90;;;;;;2605766;47;19946;-78
2023/10/03 11:24:58;;;;;;;;;;;23.20;99.90;;;;;;2606656;47;19954;-73
2023/10/03 11:27:31;;;;;;;;;;;23.10;99.90;;;;;;2607779;39;20092;-76
2023/10/03 11:30:00;;;;;;;;;;;23.10;99.90;;;;;;2606713;54;19946;-71
2023/10/03 11:32:32;;;;;;;;;;;23.00;99.90;;;;;;2605681;47;19950;-71
2023/10/03 11:35:16;;;;;;;;;;;23.00;99.90;;;;;;2605533;54;19955;-71
2023/10/03 11:37:46;;;;;;;;;;;23.00;99.90;;;;;;2605833;54;19965;-73
2023/10/03 11:40:18;;;;;;;;;;;23.10;99.90;;;;;;2605539;39;20001;-72
2023/10/03 11:42:55;;;;;;;;;;;23.00;99.90;;;;;;2605726;47;19946;-71
2023/10/03 11:45:28;;;;;;;;;;;23.00;99.90;;;;;;2605992;54;19947;-72
2023/10/03 11:48:00;;;;;;;;;;;23.00;99.90;;;;;;2605946;54;19952;-72
2023/10/03 11:50:32;;;;;;;;;;;23.00;99.90;;;;;;2605976;39;20192;-72
2023/10/03 11:53:01;;;;;;;;;;;23.00;99.90;;;;;;2605442;46;20110;-74
2023/10/03 11:55:33;;;;;;;;;;;23.00;99.90;;;;;;2606700;54;19946;-73
2023/10/03 11:58:05;;;;;;;;;;;23.40;99.90;;;;;;2606193;54;19947;-72
2023/10/03 12:00:36;;;;;;;;;;;23.00;99.90;;;;;;2606280;54;20059;-73
2023/10/03 12:03:09;;;;;;;;;;;22.80;99.90;;;;;;2613497;54;19950;-72
2023/10/03 12:05:42;;;;;;;;;;;22.80;99.90;;;;;;2615543;54;19976;-71
2023/10/03 12:08:12;;;;;;;;;;;22.80;99.90;;;;;;2615468;54;19971;-71
2023/10/03 12:10:43;;;;;;;;;;;22.80;99.90;;;;;;2615659;47;19950;-72
2023/10/03 12:13:15;;;;;;;;;;;22.70;99.90;;;;;;2616149;54;19939;-71
2023/10/03 12:15:46;;;;;;;;;;;22.60;99.90;;;;;;2615945;47;19999;-70
2023/10/03 12:18:18;;;;;;;;;;;22.50;99.90;;;;;;2616903;54;19945;-72
2023/10/03 12:20:48;;;;;;;;;;;22.10;99.90;;;;;;2616747;47;19950;-75
2023/10/03 12:23:18;;;;;;;;;;;21.80;99.90;;;;;;2615743;54;20030;-74
2023/10/03 12:25:47;;;;;;;;;;;21.50;99.90;;;;;;2616328;54;19950;-75
2023/10/03 12:28:21;;;;;;;;;;;21.10;99.90;;;;;;2616399;54;19946;-75
2023/10/03 12:30:51;;;;;;;;;;;20.80;99.90;;;;;;2616904;54;19947;-76
2023/10/03 12:33:22;;;;;;;;;;;20.70;99.90;;;;;;2616893;47;19945;-73
2023/10/03 12:35:52;;;;;;;;;;;20.50;99.90;;;;;;2617849;47;20438;-75
2023/10/03 12:38:22;;;;;;;;;;;20.40;99.90;;;;;;2616854;47;20461;-74
2023/10/03 12:40:52;;;;;;;;;;;20.40;99.90;;;;;;2616273;47;19954;-73
2023/10/03 12:43:25;;;;;;;;;;;20.30;99.90;;;;;;2615795;47;20057;-74
2023/10/03 12:45:54;;;;;;;;;;;20.30;99.90;;;;;;2616322;54;19946;-74
2023/10/03 12:48:26;;;;;;;;;;;20.30;99.90;;;;;;2616545;47;19946;-72
2023/10/03 12:50:56;;;;;;;;;;;20.20;99.90;;;;;;2616149;54;19954;-73
2023/10/03 12:53:33;;;;;;;;;;;20.20;99.90;;;;;;2616927;39;20024;-75
2023/10/03 12:56:03;;;;;;;;;;;20.20;99.90;;;;;;2616298;54;19947;-75
2023/10/03 12:58:36;;;;;;;;;;;20.10;99.90;;;;;;2617795;47;19962;-78
2023/10/03 13:01:06;;;;;;;;;;;20.20;99.90;;;;;;2617419;47;19946;-75
2023/10/03 13:03:35;;;;;;;;;;;20.10;99.90;;;;;;2616282;54;19954;-73
2023/10/03 13:06:06;;;;;;;;;;;20.10;99.90;;;;;;2616191;54;20051;-72
2023/10/03 13:08:36;;;;;;;;;;;20.00;99.90;;;;;;2615931;47;19945;-73
2023/10/03 13:11:05;;;;;;;;;;;20.00;99.90;;;;;;2615409;54;19973;-72
2023/10/03 13:13:40;;;;;;;;;;;19.90;99.90;;;;;;2616510;54;20038;-73
2023/10/03 13:16:10;;;;;;;;;;;19.80;99.90;;;;;;2616949;54;19946;-74
2023/10/03 13:18:40;;;;;;;;;;;19.80;99.90;;;;;;2616907;47;19939;-74
2023/10/03 13:21:10;;;;;;;;;;;19.70;99.90;;;;;;2616246;47;19943;-72
2023/10/03 13:23:42;;;;;;;;;;;19.70;99.90;;;;;;2616236;47;19951;-73
2023/10/03 13:26:12;;;;;;;;;;;19.70;99.90;;;;;;2616034;47;19946;-75
2023/10/03 13:28:47;;;;;;;;;;;19.60;99.90;;;;;;2616368;47;19954;-73
2023/10/03 13:31:18;;;;;;;;;;;19.60;99.90;;;;;;2616305;47;19947;-74
2023/10/03 13:33:49;;;;;;;;;;;19.70;99.90;;;;;;2616852;47;19970;-76
2023/10/03 13:36:20;;;;;;;;;;;19.70;99.90;;;;;;2617073;47;19958;-75
2023/10/03 13:38:50;;;;;;;;;;;19.70;99.90;;;;;;2618260;39;20381;-75
2023/10/03 13:41:20;;;;;;;;;;;19.70;99.90;;;;;;2617111;54;19971;-75
2023/10/03 13:43:52;;;;;;;;;;;19.70;99.90;;;;;;2618156;54;19943;-75
2023/10/03 13:46:22;;;;;;;;;;;19.70;99.90;;;;;;2617037;39;20354;-74
2023/10/03 13:48:53;;;;;;;;;;;19.70;99.90;;;;;;2618432;54;19939;-75
2023/10/03 13:51:24;;;;;;;;;;;19.70;99.90;;;;;;2617719;47;20503;-74
2023/10/03 13:53:53;;;;;;;;;;;19.70;99.90;;;;;;2617572;47;19947;-73
2023/10/03 13:56:23;;;;;;;;;;;19.60;99.90;;;;;;2617252;47;19971;-73
2023/10/03 13:58:55;;;;;;;;;;;19.50;99.90;;;;;;2617699;54;19939;-62
2023/10/03 14:01:25;;;;;;;;;;;19.40;99.90;;;;;;2600478;54;19946;-63
2023/10/03 14:03:54;;;;;;;;;;;19.30;99.90;;;;;;2606882;54;19958;-60
2023/10/03 14:06:25;;;;;;;;;;;19.20;99.90;;;;;;2606354;54;19957;-61
2023/10/03 14:08:55;;;;;;;;;;;19.20;99.90;;;;;;2606803;47;20508;-64
2023/10/03 14:11:27;;;;;;;;;;;19.10;99.90;;;;;;2606139;54;19953;-62
2023/10/03 14:13:59;;;;;;;;;;;19.10;99.90;;;;;;2607491;54;20453;-63
2023/10/03 14:16:29;;;;;;;;;;;17.80;99.90;;;;;;2606505;54;20341;-64
2023/10/03 14:18:58;;;;;;;;;;;19.00;99.90;;;;;;2607404;54;20595;-61
2023/10/03 14:21:28;;;;;;;;;;;18.90;99.90;;;;;;2606335;54;19957;-62
2023/10/03 14:24:12;;;;;;;;;;;18.90;99.90;;;;;;2612837;54;19959;-76
2023/10/03 14:26:42;;;;;;;;;;;18.80;99.90;;;;;;2611697;54;20038;-76
2023/10/03 14:29:15;;;;;;;;;;;18.60;99.90;;;;;;2610740;54;19946;-79
2023/10/03 14:31:44;;;;;;;;;;;18.50;99.90;;;;;;2615688;47;19950;-81
2023/10/03 14:34:14;;;;;;;;;;;18.40;99.90;;;;;;2612442;54;19950;-74
2023/10/03 14:36:45;;;;;;;;;;;18.20;99.90;;;;;;2607730;47;19950;-73
2023/10/03 14:39:22;;;;;;;;;;;18.10;99.90;;;;;;2606430;54;19953;-74
2023/10/03 14:41:52;;;;;;;;;;;18.10;99.90;;;;;;2608095;47;19938;-75
2023/10/03 14:44:24;;;;;;;;;;;18.10;99.90;;;;;;2613249;39;20338;-79
2023/10/03 14:46:54;;;;;;;;;;;16.60;99.90;;;;;;2612503;54;21060;-78
2023/10/03 14:49:24;;;;;;;;;;;18.00;99.90;;;;;;2610293;39;20362;-80
2023/10/03 14:51:55;;;;;;;;;;;17.90;99.90;;;;;;2614613;54;19950;-79
2023/10/03 14:54:25;;;;;;;;;;;17.90;99.90;;;;;;2608629;54;19953;-77
2023/10/03 14:56:55;;;;;;;;;;;17.90;99.90;;;;;;2612465;47;19946;-77
2023/10/03 14:59:27;;;;;;;;;;;17.90;99.90;;;;;;2613073;39;20323;-77
2023/10/03 15:01:57;;;;;;;;;;;18.00;99.90;;;;;;2614900;47;19942;-80
2023/10/03 15:04:27;;;;;;;;;;;17.90;99.90;;;;;;2617392;54;20023;-81
2023/10/03 15:06:57;;;;;;;;;;;18.00;99.90;;;;;;2617895;46;19953;-82
2023/10/03 15:09:29;;;;;;;;;;;17.90;99.90;;;;;;2610347;47;19946;-75
2023/10/03 15:11:59;;;;;;;;;;;17.90;99.90;;;;;;2605881;47;19983;-74
2023/10/03 15:14:31;;;;;;;;;;;17.90;99.90;;;;;;2606917;39;20481;-76
2023/10/03 15:17:01;;;;;;;;;;;17.90;99.90;;;;;;2607112;54;19946;-76
2023/10/03 15:19:33;;;;;;;;;;;17.90;99.90;;;;;;2610174;51;19947;-76
2023/10/03 15:22:04;;;;;;;;;;;17.90;99.90;;;;;;2607261;54;19981;-77
2023/10/03 15:24:34;;;;;;;;;;;17.70;99.90;;;;;;2607108;54;19947;-75
2023/10/03 15:27:04;;;;;;;;;;;17.90;99.90;;;;;;2606129;47;19946;-74
2023/10/03 15:29:37;;;;;;;;;;;17.80;99.90;;;;;;2606547;54;19946;-73
2023/10/03 15:32:07;;;;;;;;;;;17.70;99.90;;;;;;2605107;39;20737;-74
2023/10/03 15:34:40;;;;;;;;;;;17.70;99.90;;;;;;2605299;54;19978;-74
2023/10/03 15:37:12;;;;;;;;;;;17.70;99.90;;;;;;2604579;47;19958;-74
2023/10/03 15:39:41;;;;;;;;;;;17.70;99.90;;;;;;2606178;52;19946;-78
2023/10/03 15:42:12;;;;;;;;;;;17.70;99.90;;;;;;2604920;54;19946;-76
2023/10/03 15:44:44;;;;;;;;;;;17.70;99.90;;;;;;2605652;46;20114;-75
2023/10/03 15:47:34;;;;;;;;;;;17.60;99.90;;;;;;2606203;47;20121;-74
2023/10/03 15:50:04;;;;;;;;;;;17.60;99.90;;;;;;2606515;54;19951;-73
2023/10/03 15:52:33;;;;;;;;;;;17.70;99.90;;;;;;2606206;39;20389;-74
2023/10/03 15:55:04;;;;;;;;;;;17.70;99.90;;;;;;2606596;54;19947;-73
2023/10/03 15:57:33;;;;;;;;;;;17.70;99.90;;;;;;2606357;54;19946;-77
2023/10/03 16:00:11;;;;;;;;;;;17.80;99.90;;;;;;2605940;54;20532;-76
2023/10/03 16:02:41;;;;;;;;;;;17.70;99.90;;;;;;2605886;47;19972;-78
2023/10/03 16:05:13;;;;;;;;;;;17.80;99.90;;;;;;2608166;31;20409;-77
2023/10/03 16:07:43;;;;;;;;;;;17.90;99.90;;;;;;2607150;47;19956;-78
2023/10/03 16:10:13;;;;;;;;;;;17.90;99.90;;;;;;2604721;54;19978;-65
2023/10/03 16:12:44;;;;;;;;;;;17.90;99.90;;;;;;2612977;47;19947;-63
2023/10/03 16:15:16;;;;;;;;;;;18.00;99.90;;;;;;2616445;54;20460;-62
2023/10/03 16:17:45;;;;;;;;;;;18.00;99.90;;;;;;2615611;54;19955;-63
2023/10/03 16:20:17;;;;;;;;;;;18.00;99.90;;;;;;2614912;54;19951;-63
2023/10/03 16:22:46;;;;;;;;;;;18.00;99.90;;;;;;2615589;54;19954;-63